createdAt,value
2017-12-28T00:00:22.474Z,21.73
2017-12-28T00:00:56.909Z,21.42
2017-12-28T00:01:30.585Z,22.30
2017-12-28T00:02:05.025Z,22.02
2017-12-28T00:02:38.697Z,21.20
2017-12-28T00:03:12.658Z,20.48
2017-12-28T00:03:47.126Z,21.37
2017-12-28T00:04:20.969Z,20.85
2017-12-28T00:04:55.410Z,21.58
2017-12-28T00:05:29.078Z,20.58
2017-12-28T00:06:02.775Z,20.15
2017-12-28T00:06:36.452Z,20.35
2017-12-28T00:07:10.889Z,19.85
2017-12-28T00:07:44.567Z,21.33
2017-12-28T00:08:18.529Z,20.30
2017-12-28T00:08:52.970Z,19.58
2017-12-28T00:09:26.654Z,21.75
2017-12-28T00:10:00.324Z,19.12
2017-12-28T00:10:34.756Z,20.95
2017-12-28T00:11:08.423Z,20.05
2017-12-28T00:11:42.862Z,21.20
2017-12-28T00:12:16.530Z,21.23
2017-12-28T00:12:50.233Z,21.02
2017-12-28T00:13:23.941Z,20.05
2017-12-28T00:13:57.806Z,20.95
2017-12-28T00:14:31.481Z,20.73
2017-12-28T00:15:05.927Z,20.65
2017-12-28T00:15:39.586Z,20.62
2017-12-28T00:16:14.028Z,21.17
2017-12-28T00:16:47.701Z,20.35
2017-12-28T00:17:21.360Z,19.80
2017-12-28T00:17:55.789Z,20.58
2017-12-28T00:18:29.494Z,20.90
2017-12-28T00:19:03.156Z,20.42
2017-12-28T00:19:37.590Z,19.90
2017-12-28T00:20:11.250Z,20.08
2017-12-28T00:20:45.694Z,20.77
2017-12-28T00:21:19.354Z,22.30
2017-12-28T00:21:53.027Z,21.30
2017-12-28T00:22:27.457Z,20.88
2017-12-28T00:23:01.125Z,20.55
2017-12-28T00:23:35.584Z,21.17
2017-12-28T00:24:09.252Z,21.40
2017-12-28T00:24:43.161Z,20.23
2017-12-28T00:25:16.826Z,21.30
2017-12-28T00:25:50.497Z,18.92
2017-12-28T00:26:24.929Z,20.27
2017-12-28T00:26:58.611Z,20.80
2017-12-28T00:27:32.275Z,20.12
2017-12-28T00:28:06.074Z,20.30
2017-12-28T00:28:40.557Z,22.60
2017-12-28T00:29:14.218Z,21.17
2017-12-28T00:29:47.891Z,22.30
2017-12-28T00:30:21.551Z,25.42
2017-12-28T00:30:55.974Z,25.40
2017-12-28T00:31:29.639Z,27.50
2017-12-28T00:32:04.070Z,24.05
2017-12-28T00:32:38.492Z,23.65
2017-12-28T00:33:12.166Z,23.67
2017-12-28T00:33:46.627Z,22.55
2017-12-28T00:34:20.299Z,22.60
2017-12-28T00:34:53.972Z,23.35
2017-12-28T00:35:27.457Z,26.02
2017-12-28T00:36:00.939Z,25.45
2017-12-28T00:36:34.426Z,25.48
2017-12-28T00:37:08.097Z,24.95
2017-12-28T00:37:41.775Z,23.80
2017-12-28T00:38:16.019Z,20.90
2017-12-28T00:38:50.075Z,21.48
2017-12-28T00:39:24.514Z,20.15
2017-12-28T00:39:58.169Z,21.80
2017-12-28T00:40:32.601Z,20.85
2017-12-28T00:41:06.286Z,21.92
2017-12-28T00:41:41.259Z,21.27
2017-12-28T00:42:14.737Z,20.08
2017-12-28T00:42:48.404Z,21.25
2017-12-28T00:43:22.065Z,21.58
2017-12-28T00:43:56.039Z,20.45
2017-12-28T00:44:30.468Z,21.80
2017-12-28T00:45:04.234Z,20.65
2017-12-28T00:45:37.900Z,20.02
2017-12-28T00:46:11.569Z,20.95
2017-12-28T00:46:45.250Z,21.25
2017-12-28T00:47:18.729Z,21.45
2017-12-28T00:47:52.399Z,22.65
2017-12-28T00:48:26.825Z,21.08
2017-12-28T00:49:00.519Z,21.23
2017-12-28T00:49:34.329Z,20.35
2017-12-28T00:50:07.813Z,19.85
2017-12-28T00:50:41.282Z,20.30
2017-12-28T00:51:14.955Z,20.33
2017-12-28T00:51:48.620Z,22.45
2017-12-28T00:52:23.054Z,19.77
2017-12-28T00:52:56.721Z,20.02
2017-12-28T00:53:30.961Z,20.27
2017-12-28T00:54:04.661Z,20.67
2017-12-28T00:54:38.318Z,20.55
2017-12-28T00:55:12.767Z,20.60
2017-12-28T00:55:46.254Z,22.15
2017-12-28T00:56:19.737Z,21.23
2017-12-28T00:56:53.399Z,19.85
2017-12-28T00:57:27.077Z,20.30
2017-12-28T00:58:00.747Z,20.90
2017-12-28T00:58:35.184Z,19.70
2017-12-28T00:59:09.152Z,19.60
2017-12-28T00:59:43.578Z,20.12
2017-12-28T01:00:17.244Z,21.55
2017-12-28T01:00:50.914Z,21.08
2017-12-28T01:01:24.572Z,19.83
2017-12-28T01:01:58.233Z,18.60
2017-12-28T01:02:32.678Z,20.45
2017-12-28T01:03:06.343Z,19.45
2017-12-28T01:03:40.026Z,21.25
2017-12-28T01:04:13.760Z,20.35
2017-12-28T01:04:47.433Z,19.23
2017-12-28T01:05:21.094Z,19.65
2017-12-28T01:05:54.805Z,19.70
2017-12-28T01:06:28.470Z,20.37
2017-12-28T01:07:02.909Z,20.85
2017-12-28T01:07:36.591Z,19.65
2017-12-28T01:08:10.254Z,20.00
2017-12-28T01:08:44.697Z,19.90
2017-12-28T01:09:18.774Z,20.92
2017-12-28T01:09:52.445Z,19.87
2017-12-28T01:10:26.881Z,19.80
2017-12-28T01:11:00.547Z,19.77
2017-12-28T01:11:34.977Z,20.10
2017-12-28T01:12:08.649Z,19.40
2017-12-28T01:12:43.078Z,17.77
2017-12-28T01:13:16.734Z,18.75
2017-12-28T01:13:51.174Z,19.98
2017-12-28T01:14:25.234Z,18.87
2017-12-28T01:14:59.722Z,19.92
2017-12-28T01:15:33.378Z,18.40
2017-12-28T01:16:07.043Z,19.90
2017-12-28T01:16:40.721Z,19.25
2017-12-28T01:17:15.162Z,20.15
2017-12-28T01:17:48.823Z,18.95
2017-12-28T01:18:22.497Z,18.42
2017-12-28T01:18:56.941Z,18.08
2017-12-28T01:19:30.635Z,19.60
2017-12-28T01:20:04.303Z,19.77
2017-12-28T01:20:37.981Z,18.98
2017-12-28T01:21:12.422Z,18.85
2017-12-28T01:21:46.086Z,19.08
2017-12-28T01:22:19.758Z,17.95
2017-12-28T01:22:54.204Z,18.35
2017-12-28T01:23:27.869Z,18.12
2017-12-28T01:24:02.301Z,19.02
2017-12-28T01:24:35.993Z,17.75
2017-12-28T01:25:09.647Z,17.80
2017-12-28T01:25:44.077Z,18.70
2017-12-28T01:26:17.741Z,19.27
2017-12-28T01:26:52.169Z,19.77
2017-12-28T01:27:25.854Z,20.20
2017-12-28T01:27:59.525Z,18.42
2017-12-28T01:28:33.189Z,17.83
2017-12-28T01:29:09.094Z,19.25
2017-12-28T01:29:42.810Z,18.42
2017-12-28T01:30:16.487Z,19.52
2017-12-28T01:30:50.155Z,19.42
2017-12-28T01:31:23.831Z,18.50
2017-12-28T01:31:57.561Z,18.95
2017-12-28T01:32:31.235Z,19.00
2017-12-28T01:33:04.901Z,19.10
2017-12-28T01:33:38.570Z,19.35
2017-12-28T01:34:12.997Z,18.45
2017-12-28T01:34:46.678Z,21.33
2017-12-28T01:35:21.110Z,18.90
2017-12-28T01:35:54.770Z,19.45
2017-12-28T01:36:29.214Z,18.77
2017-12-28T01:37:02.875Z,19.50
2017-12-28T01:37:37.117Z,18.48
2017-12-28T01:38:10.853Z,18.25
2017-12-28T01:38:45.281Z,19.52
2017-12-28T01:39:19.710Z,18.58
2017-12-28T01:39:53.769Z,18.00
2017-12-28T01:40:28.195Z,19.12
2017-12-28T01:41:02.630Z,18.65
2017-12-28T01:41:36.126Z,19.80
2017-12-28T01:42:09.994Z,17.33
2017-12-28T01:42:43.663Z,18.60
2017-12-28T01:43:18.089Z,19.48
2017-12-28T01:43:51.761Z,19.45
2017-12-28T01:44:26.187Z,17.52
2017-12-28T01:44:59.713Z,17.58
2017-12-28T01:45:33.378Z,19.33
2017-12-28T01:46:07.057Z,19.10
2017-12-28T01:46:40.736Z,17.90
2017-12-28T01:47:14.400Z,17.90
2017-12-28T01:48:00.110Z,17.35
2017-12-28T01:48:33.796Z,18.17
2017-12-28T01:49:07.450Z,18.05
2017-12-28T01:49:40.968Z,17.98
2017-12-28T01:50:14.479Z,18.20
2017-12-28T01:50:48.158Z,18.08
2017-12-28T01:51:21.829Z,18.05
2017-12-28T01:51:55.490Z,18.08
2017-12-28T01:52:29.916Z,17.52
2017-12-28T01:53:03.579Z,17.33
2017-12-28T01:53:37.245Z,18.73
2017-12-28T01:54:10.914Z,18.62
2017-12-28T01:54:44.578Z,18.50
2017-12-28T01:55:18.281Z,17.75
2017-12-28T01:55:51.949Z,18.27
2017-12-28T01:56:26.385Z,17.90
2017-12-28T01:57:00.043Z,17.73
2017-12-28T01:57:34.482Z,18.20
2017-12-28T01:58:08.166Z,17.62
2017-12-28T01:58:41.830Z,18.10
2017-12-28T01:59:16.268Z,17.75
2017-12-28T01:59:49.956Z,17.45
2017-12-28T02:00:23.671Z,17.48
2017-12-28T02:00:57.334Z,16.92
2017-12-28T02:01:30.990Z,18.12
2017-12-28T02:02:05.417Z,17.08
2017-12-28T02:02:39.078Z,18.80
2017-12-28T02:03:12.730Z,17.42
2017-12-28T02:03:46.394Z,16.80
2017-12-28T02:04:20.063Z,17.20
2017-12-28T02:04:54.486Z,17.77
2017-12-28T02:05:28.259Z,17.27
2017-12-28T02:06:01.946Z,17.70
2017-12-28T02:06:36.369Z,18.45
2017-12-28T02:07:10.030Z,18.00
2017-12-28T02:07:43.705Z,18.92
2017-12-28T02:08:17.369Z,18.77
2017-12-28T02:08:51.041Z,18.80
2017-12-28T02:09:24.708Z,18.90
2017-12-28T02:09:59.145Z,17.85
2017-12-28T02:10:32.843Z,18.27
2017-12-28T02:11:06.502Z,17.95
2017-12-28T02:11:40.172Z,18.27
2017-12-28T02:12:14.610Z,18.00
2017-12-28T02:12:48.280Z,17.73
2017-12-28T02:13:22.710Z,18.60
2017-12-28T02:13:56.366Z,17.33
2017-12-28T02:14:30.793Z,19.10
2017-12-28T02:15:03.818Z,18.67
2017-12-28T02:15:37.507Z,18.23
2017-12-28T02:16:11.182Z,17.92
2017-12-28T02:16:44.853Z,17.70
2017-12-28T02:17:18.514Z,18.00
2017-12-28T02:17:52.951Z,18.73
2017-12-28T02:18:26.619Z,16.75
2017-12-28T02:19:00.275Z,17.52
2017-12-28T02:19:34.140Z,17.62
2017-12-28T02:20:07.138Z,18.15
2017-12-28T02:20:40.821Z,17.27
2017-12-28T02:21:14.479Z,17.42
2017-12-28T02:21:48.142Z,17.48
2017-12-28T02:22:21.849Z,18.08
2017-12-28T02:22:55.507Z,18.48
2017-12-28T02:23:29.945Z,17.30
2017-12-28T02:24:03.602Z,17.70
2017-12-28T02:24:38.046Z,18.48
2017-12-28T02:25:11.710Z,17.87
2017-12-28T02:25:45.428Z,17.00
2017-12-28T02:26:19.088Z,16.33
2017-12-28T02:26:53.522Z,16.90
2017-12-28T02:27:27.182Z,17.10
2017-12-28T02:28:01.616Z,16.77
2017-12-28T02:28:35.314Z,17.37
2017-12-28T02:29:08.985Z,18.05
2017-12-28T02:29:42.644Z,17.75
2017-12-28T02:30:17.066Z,16.92
2017-12-28T02:30:51.523Z,16.73
2017-12-28T02:31:25.173Z,18.12
2017-12-28T02:31:58.852Z,17.12
2017-12-28T02:32:33.310Z,17.42
2017-12-28T02:33:06.979Z,17.58
2017-12-28T02:33:40.635Z,18.30
2017-12-28T02:34:15.065Z,16.62
2017-12-28T02:34:48.717Z,16.98
2017-12-28T02:35:23.138Z,18.27
2017-12-28T02:35:57.590Z,17.40
2017-12-28T02:36:31.258Z,16.65
2017-12-28T02:37:04.921Z,17.62
2017-12-28T02:37:39.353Z,15.85
2017-12-28T02:38:13.011Z,16.90
2017-12-28T02:38:47.451Z,17.45
2017-12-28T02:39:21.107Z,17.27
2017-12-28T02:39:54.792Z,16.37
2017-12-28T02:40:28.621Z,16.60
2017-12-28T02:41:02.325Z,17.08
2017-12-28T02:41:35.989Z,16.80
2017-12-28T02:42:09.671Z,17.05
2017-12-28T02:42:44.102Z,17.65
2017-12-28T02:43:17.755Z,18.15
2017-12-28T02:43:52.178Z,17.52
2017-12-28T02:44:26.602Z,17.65
2017-12-28T02:45:00.257Z,17.10
2017-12-28T02:45:33.913Z,17.40
2017-12-28T02:46:07.605Z,16.87
2017-12-28T02:46:41.297Z,18.70
2017-12-28T02:47:14.953Z,17.55
2017-12-28T02:47:48.620Z,17.50
2017-12-28T02:48:23.045Z,16.95
2017-12-28T02:48:56.702Z,17.98
2017-12-28T02:49:30.390Z,17.60
2017-12-28T02:50:03.877Z,18.33
2017-12-28T02:50:38.313Z,18.60
2017-12-28T02:51:12.024Z,18.95
2017-12-28T02:51:45.893Z,18.87
2017-12-28T02:52:19.559Z,19.95
2017-12-28T02:52:53.977Z,18.73
2017-12-28T02:53:28.395Z,19.83
2017-12-28T02:54:02.073Z,18.87
2017-12-28T02:54:36.515Z,18.17
2017-12-28T02:55:10.191Z,17.30
2017-12-28T02:55:43.929Z,17.92
2017-12-28T02:56:17.620Z,18.42
2017-12-28T02:56:51.276Z,18.58
2017-12-28T02:57:24.930Z,18.20
2017-12-28T02:57:58.608Z,16.83
2017-12-28T02:58:33.035Z,18.37
2017-12-28T02:59:06.708Z,18.80
2017-12-28T02:59:41.154Z,18.30
2017-12-28T03:00:14.818Z,17.62
2017-12-28T03:00:49.256Z,17.25
2017-12-28T03:01:22.947Z,19.73
2017-12-28T03:01:56.289Z,18.40
2017-12-28T03:02:30.718Z,18.42
2017-12-28T03:03:04.375Z,17.60
2017-12-28T03:03:38.034Z,17.33
2017-12-28T03:04:11.702Z,18.48
2017-12-28T03:04:45.373Z,19.05
2017-12-28T03:05:19.106Z,18.25
2017-12-28T03:05:52.777Z,18.98
2017-12-28T03:06:26.642Z,19.42
2017-12-28T03:07:00.306Z,18.67
2017-12-28T03:07:34.746Z,17.50
2017-12-28T03:08:08.423Z,18.95
2017-12-28T03:08:42.077Z,19.37
2017-12-28T03:09:15.842Z,19.65
2017-12-28T03:09:49.676Z,18.80
2017-12-28T03:10:23.529Z,18.95
2017-12-28T03:10:57.194Z,18.65
2017-12-28T03:11:31.262Z,17.80
2017-12-28T03:12:05.689Z,19.35
2017-12-28T03:12:39.366Z,18.17
2017-12-28T03:13:13.804Z,17.73
2017-12-28T03:13:47.466Z,17.75
2017-12-28T03:14:21.122Z,19.60
2017-12-28T03:14:54.784Z,18.65
2017-12-28T03:15:28.450Z,18.25
2017-12-28T03:16:02.108Z,18.58
2017-12-28T03:16:36.842Z,19.00
2017-12-28T03:17:11.278Z,18.80
2017-12-28T03:17:44.958Z,18.15
2017-12-28T03:18:18.628Z,19.92
2017-12-28T03:18:51.627Z,19.70
2017-12-28T03:19:25.291Z,18.12
2017-12-28T03:19:58.957Z,18.87
2017-12-28T03:20:32.621Z,18.15
2017-12-28T03:21:06.295Z,18.98
2017-12-28T03:21:39.985Z,18.90
2017-12-28T03:22:13.664Z,19.65
2017-12-28T03:22:47.324Z,19.27
2017-12-28T03:23:20.986Z,19.27
2017-12-28T03:23:55.422Z,18.48
2017-12-28T03:24:29.859Z,18.25
2017-12-28T03:25:03.525Z,18.62
2017-12-28T03:25:37.089Z,19.02
2017-12-28T03:26:11.332Z,19.75
2017-12-28T03:26:45.182Z,17.77
2017-12-28T03:27:19.430Z,18.70
2017-12-28T03:27:53.102Z,18.05
2017-12-28T03:28:26.593Z,19.58
2017-12-28T03:29:00.260Z,17.83
2017-12-28T03:29:34.697Z,19.35
2017-12-28T03:30:08.361Z,18.65
2017-12-28T03:30:42.033Z,19.70
2017-12-28T03:31:15.710Z,20.02
2017-12-28T03:31:49.721Z,17.95
2017-12-28T03:32:23.379Z,19.08
2017-12-28T03:32:57.046Z,19.65
2017-12-28T03:33:30.714Z,19.15
2017-12-28T03:34:04.384Z,19.35
2017-12-28T03:34:38.850Z,19.52
2017-12-28T03:35:13.443Z,20.75
2017-12-28T03:35:47.106Z,19.60
2017-12-28T03:36:20.777Z,19.10
2017-12-28T03:36:55.258Z,18.80
2017-12-28T03:37:28.927Z,18.42
2017-12-28T03:38:02.397Z,19.25
2017-12-28T03:38:36.067Z,18.80
2017-12-28T03:39:09.725Z,20.23
2017-12-28T03:39:43.399Z,19.40
2017-12-28T03:40:17.062Z,19.83
2017-12-28T03:40:50.736Z,19.02
2017-12-28T03:41:24.401Z,19.25
2017-12-28T03:41:59.214Z,20.45
2017-12-28T03:42:33.657Z,20.37
2017-12-28T03:43:07.324Z,19.12
2017-12-28T03:43:41.562Z,19.95
2017-12-28T03:44:15.222Z,20.40
2017-12-28T03:44:48.728Z,19.95
2017-12-28T03:45:22.426Z,19.15
2017-12-28T03:45:56.081Z,19.40
2017-12-28T03:46:30.497Z,19.55
2017-12-28T03:47:04.008Z,20.05
2017-12-28T03:47:37.753Z,20.00
2017-12-28T03:48:12.177Z,19.45
2017-12-28T03:48:45.952Z,20.40
2017-12-28T03:49:20.369Z,19.42
2017-12-28T03:49:54.797Z,19.02
2017-12-28T03:50:28.460Z,19.12
2017-12-28T03:51:02.912Z,19.70
2017-12-28T03:51:36.575Z,20.20
2017-12-28T03:52:10.540Z,19.02
2017-12-28T03:52:45.005Z,20.48
2017-12-28T03:53:18.671Z,20.20
2017-12-28T03:53:52.321Z,19.62
2017-12-28T03:54:26.753Z,19.60
2017-12-28T03:55:01.176Z,20.88
2017-12-28T03:55:34.841Z,19.17
2017-12-28T03:56:09.256Z,21.35
2017-12-28T03:56:43.695Z,20.67
2017-12-28T03:57:17.390Z,19.90
2017-12-28T03:57:51.046Z,19.80
2017-12-28T03:58:24.711Z,20.00
2017-12-28T03:58:59.141Z,19.80
2017-12-28T03:59:33.577Z,18.92
2017-12-28T04:00:07.238Z,19.60
2017-12-28T04:00:41.673Z,20.95
2017-12-28T04:01:15.330Z,19.08
2017-12-28T04:01:49.772Z,19.33
2017-12-28T04:03:12.879Z,20.42
2017-12-28T04:03:47.314Z,20.27
2017-12-28T04:04:20.977Z,21.05
2017-12-28T04:04:55.406Z,19.58
2017-12-28T04:05:29.075Z,19.60
2017-12-28T04:06:03.508Z,20.12
2017-12-28T04:06:37.252Z,20.65
2017-12-28T04:07:10.921Z,20.17
2017-12-28T04:07:44.585Z,19.40
2017-12-28T04:08:18.287Z,21.00
2017-12-28T04:08:52.036Z,20.23
2017-12-28T04:09:26.470Z,20.90
2017-12-28T04:10:00.142Z,19.52
2017-12-28T04:10:33.808Z,19.30
2017-12-28T04:11:07.475Z,18.98
2017-12-28T04:11:41.142Z,20.08
2017-12-28T04:12:14.816Z,20.20
2017-12-28T04:12:48.165Z,19.75
2017-12-28T04:13:22.656Z,19.98
2017-12-28T04:13:56.318Z,19.35
2017-12-28T04:14:29.989Z,20.02
2017-12-28T04:15:03.662Z,20.33
2017-12-28T04:15:37.337Z,19.87
2017-12-28T04:16:11.014Z,20.75
2017-12-28T04:16:44.673Z,18.70
2017-12-28T04:17:18.345Z,18.60
2017-12-28T04:17:51.997Z,19.27
2017-12-28T04:18:26.437Z,19.23
2017-12-28T04:19:00.094Z,18.98
2017-12-28T04:19:34.524Z,20.75
2017-12-28T04:20:08.194Z,20.08
2017-12-28T04:20:42.681Z,20.40
2017-12-28T04:21:16.380Z,20.30
2017-12-28T04:21:50.801Z,18.98
2017-12-28T04:22:24.462Z,19.30
2017-12-28T04:22:58.119Z,20.40
2017-12-28T04:23:32.153Z,19.75
2017-12-28T04:24:05.818Z,20.25
2017-12-28T04:24:39.473Z,19.73
2017-12-28T04:25:13.465Z,20.17
2017-12-28T04:25:47.133Z,20.60
2017-12-28T04:26:21.567Z,20.60
2017-12-28T04:26:55.229Z,20.62
2017-12-28T04:27:29.658Z,19.75
2017-12-28T04:28:03.317Z,19.17
2017-12-28T04:28:37.836Z,19.75
2017-12-28T04:29:12.263Z,18.52
2017-12-28T04:29:45.922Z,19.92
2017-12-28T04:30:20.340Z,19.87
2017-12-28T04:30:54.808Z,21.45
2017-12-28T04:31:28.473Z,20.73
2017-12-28T04:32:02.131Z,20.25
2017-12-28T04:32:36.556Z,20.98
2017-12-28T04:33:10.218Z,20.73
2017-12-28T04:33:44.965Z,20.95
2017-12-28T04:34:18.630Z,20.00
2017-12-28T04:34:53.057Z,18.95
2017-12-28T04:35:26.725Z,20.80
2017-12-28T04:36:01.158Z,20.98
2017-12-28T04:36:34.826Z,20.33
2017-12-28T04:37:08.510Z,20.48
2017-12-28T04:37:42.943Z,19.87
2017-12-28T04:38:16.606Z,19.95
2017-12-28T04:38:51.060Z,21.73
2017-12-28T04:39:24.725Z,19.87
2017-12-28T04:39:59.406Z,21.00
2017-12-28T04:40:33.837Z,20.00
2017-12-28T04:41:07.500Z,19.80
2017-12-28T04:41:41.950Z,20.67
2017-12-28T04:42:15.610Z,19.12
2017-12-28T04:42:50.058Z,20.23
2017-12-28T04:43:23.734Z,21.55
2017-12-28T04:43:57.793Z,20.55
2017-12-28T04:44:32.215Z,20.33
2017-12-28T04:45:06.641Z,20.08
2017-12-28T04:45:40.309Z,21.65
2017-12-28T04:46:14.738Z,20.67
2017-12-28T04:46:48.406Z,20.60
2017-12-28T04:47:22.858Z,21.02
2017-12-28T04:47:56.533Z,20.55
2017-12-28T04:48:30.016Z,20.70
2017-12-28T04:49:03.713Z,20.17
2017-12-28T04:49:37.369Z,20.35
2017-12-28T04:50:11.803Z,19.55
2017-12-28T04:50:45.466Z,21.48
2017-12-28T04:51:19.900Z,21.05
2017-12-28T04:51:53.566Z,19.60
2017-12-28T04:52:27.227Z,20.50
2017-12-28T04:53:00.888Z,21.80
2017-12-28T04:53:34.370Z,20.37
2017-12-28T04:54:08.064Z,21.15
2017-12-28T04:54:41.737Z,19.92
2017-12-28T04:55:15.401Z,20.23
2017-12-28T04:55:48.901Z,22.30
2017-12-28T04:56:22.557Z,20.55
2017-12-28T04:56:56.982Z,19.90
2017-12-28T04:57:30.642Z,21.92
2017-12-28T04:58:04.305Z,22.13
2017-12-28T04:58:37.962Z,20.52
2017-12-28T04:59:11.650Z,20.55
2017-12-28T04:59:45.317Z,21.20
2017-12-28T05:00:19.751Z,21.65
2017-12-28T05:00:53.405Z,21.35
2017-12-28T05:01:27.837Z,21.58
2017-12-28T05:02:01.497Z,21.02
2017-12-28T05:02:35.160Z,18.83
2017-12-28T05:03:08.825Z,20.75
2017-12-28T05:03:42.486Z,20.48
2017-12-28T05:04:16.946Z,20.92
2017-12-28T05:04:50.602Z,21.98
2017-12-28T05:05:24.265Z,22.33
2017-12-28T05:05:58.694Z,21.52
2017-12-28T05:06:32.346Z,20.00
2017-12-28T05:07:06.008Z,20.33
2017-12-28T05:07:39.681Z,21.42
2017-12-28T05:08:13.338Z,19.70
2017-12-28T05:08:47.004Z,20.45
2017-12-28T05:09:21.840Z,21.85
2017-12-28T05:09:56.266Z,20.67
2017-12-28T05:10:29.935Z,22.37
2017-12-28T05:11:04.369Z,20.85
2017-12-28T05:11:38.033Z,20.80
2017-12-28T05:12:12.452Z,20.05
2017-12-28T05:12:46.175Z,18.58
2017-12-28T05:13:19.857Z,19.98
2017-12-28T05:13:53.526Z,19.75
2017-12-28T05:14:27.489Z,20.10
2017-12-28T05:15:01.229Z,19.75
2017-12-28T05:15:34.893Z,20.67
2017-12-28T05:16:08.561Z,20.75
2017-12-28T05:16:42.993Z,21.52
2017-12-28T05:17:16.318Z,19.85
2017-12-28T05:17:49.988Z,20.83
2017-12-28T05:18:23.650Z,20.27
2017-12-28T05:18:57.316Z,20.40
2017-12-28T05:19:32.095Z,19.60
2017-12-28T05:20:05.768Z,21.08
2017-12-28T05:20:39.488Z,20.40
2017-12-28T05:21:13.142Z,20.33
2017-12-28T05:21:46.806Z,21.30
2017-12-28T05:22:20.469Z,20.10
2017-12-28T05:22:54.122Z,19.35
2017-12-28T05:23:27.780Z,20.40
2017-12-28T05:24:01.438Z,20.85
2017-12-28T05:24:35.446Z,18.85
2017-12-28T05:25:09.880Z,19.40
2017-12-28T05:25:43.547Z,20.48
2017-12-28T05:26:17.977Z,20.23
2017-12-28T05:26:51.650Z,20.45
2017-12-28T05:27:26.089Z,20.08
2017-12-28T05:27:59.754Z,20.25
2017-12-28T05:28:34.182Z,18.67
2017-12-28T05:29:07.852Z,20.65
2017-12-28T05:29:42.309Z,19.20
2017-12-28T05:30:15.975Z,20.23
2017-12-28T05:30:49.663Z,19.33
2017-12-28T05:31:23.326Z,20.62
2017-12-28T05:31:56.998Z,20.12
2017-12-28T05:32:31.422Z,21.05
2017-12-28T05:33:05.073Z,19.95
2017-12-28T05:33:38.731Z,21.37
2017-12-28T05:34:12.395Z,20.15
2017-12-28T05:34:46.369Z,20.05
2017-12-28T05:35:20.797Z,19.60
2017-12-28T05:35:54.450Z,19.20
2017-12-28T05:36:28.120Z,20.52
2017-12-28T05:37:01.792Z,20.00
2017-12-28T05:37:35.454Z,19.05
2017-12-28T05:38:09.122Z,20.50
2017-12-28T05:38:43.561Z,20.20
2017-12-28T05:39:17.237Z,20.73
2017-12-28T05:39:51.229Z,20.20
2017-12-28T05:40:25.653Z,19.50
2017-12-28T05:40:59.302Z,20.10
2017-12-28T05:41:32.975Z,19.60
2017-12-28T05:42:06.634Z,19.70
2017-12-28T05:42:40.119Z,20.42
2017-12-28T05:43:13.598Z,20.05
2017-12-28T05:43:47.069Z,21.10
2017-12-28T05:44:20.542Z,20.25
2017-12-28T05:44:54.989Z,19.65
2017-12-28T05:45:28.657Z,20.27
2017-12-28T05:46:02.142Z,20.40
2017-12-28T05:46:35.806Z,20.30
2017-12-28T05:47:10.232Z,19.92
2017-12-28T05:47:43.988Z,19.90
2017-12-28T05:48:17.653Z,20.92
2017-12-28T05:48:51.128Z,19.65
2017-12-28T05:49:24.793Z,19.67
2017-12-28T05:49:58.504Z,19.85
2017-12-28T05:50:32.174Z,19.67
2017-12-28T05:51:05.851Z,20.30
2017-12-28T05:51:39.324Z,20.17
2017-12-28T05:52:13.745Z,19.17
2017-12-28T05:52:47.410Z,19.65
2017-12-28T05:53:21.834Z,20.67
2017-12-28T05:53:55.309Z,21.15
2017-12-28T05:54:29.742Z,19.73
2017-12-28T05:55:03.476Z,19.75
2017-12-28T05:55:37.946Z,20.70
2017-12-28T05:56:11.619Z,20.05
2017-12-28T05:56:45.277Z,20.50
2017-12-28T05:57:18.946Z,20.10
2017-12-28T05:57:52.615Z,20.15
2017-12-28T05:58:26.278Z,20.55
2017-12-28T05:58:59.988Z,19.40
2017-12-28T05:59:33.889Z,19.48
2017-12-28T06:00:07.574Z,19.70
2017-12-28T06:00:41.240Z,18.77
2017-12-28T06:01:14.893Z,19.52
2017-12-28T06:01:48.546Z,20.67
2017-12-28T06:02:22.206Z,18.90
2017-12-28T06:02:55.866Z,19.87
2017-12-28T06:03:29.532Z,19.65
2017-12-28T06:04:03.190Z,19.65
2017-12-28T06:04:36.845Z,21.23
2017-12-28T06:05:11.302Z,19.48
2017-12-28T06:05:44.965Z,19.50
2017-12-28T06:06:18.639Z,20.23
2017-12-28T06:06:53.063Z,19.67
2017-12-28T06:07:26.740Z,21.23
2017-12-28T06:08:01.170Z,20.20
2017-12-28T06:08:34.821Z,20.12
2017-12-28T06:09:09.248Z,19.87
2017-12-28T06:09:43.977Z,20.10
2017-12-28T06:10:17.677Z,21.08
2017-12-28T06:10:51.337Z,21.33
2017-12-28T06:11:25.772Z,21.48
2017-12-28T06:11:59.438Z,23.02
2017-12-28T06:12:33.120Z,22.50
2017-12-28T06:13:07.561Z,21.35
2017-12-28T06:13:41.226Z,21.87
2017-12-28T06:14:14.908Z,22.40
2017-12-28T06:14:49.346Z,22.15
2017-12-28T06:15:23.042Z,22.83
2017-12-28T06:15:56.818Z,22.17
2017-12-28T06:16:30.486Z,21.40
2017-12-28T06:17:04.926Z,22.50
2017-12-28T06:17:38.605Z,22.77
2017-12-28T06:18:12.094Z,21.70
2017-12-28T06:18:45.757Z,21.67
2017-12-28T06:19:20.202Z,20.92
2017-12-28T06:19:53.865Z,21.05
2017-12-28T06:20:27.599Z,21.55
2017-12-28T06:21:01.278Z,22.08
2017-12-28T06:21:34.940Z,22.42
2017-12-28T06:22:08.614Z,22.90
2017-12-28T06:22:43.045Z,23.27
2017-12-28T06:23:16.703Z,24.25
2017-12-28T06:23:50.945Z,23.67
2017-12-28T06:24:24.622Z,22.20
2017-12-28T06:24:58.286Z,22.40
2017-12-28T06:25:33.035Z,22.37
2017-12-28T06:26:06.700Z,21.17
2017-12-28T06:26:40.950Z,21.80
2017-12-28T06:27:14.426Z,20.65
2017-12-28T06:27:48.105Z,23.02
2017-12-28T06:28:21.771Z,20.92
2017-12-28T06:28:55.446Z,21.58
2017-12-28T06:29:29.886Z,20.37
2017-12-28T06:30:03.562Z,20.92
2017-12-28T06:30:37.262Z,20.17
2017-12-28T06:31:10.918Z,19.55
2017-12-28T06:31:45.351Z,19.42
2017-12-28T06:32:19.013Z,20.17
2017-12-28T06:32:53.438Z,20.33
2017-12-28T06:33:26.926Z,21.08
2017-12-28T06:34:00.582Z,19.50
2017-12-28T06:34:34.248Z,20.33
2017-12-28T06:35:08.078Z,20.37
2017-12-28T06:35:42.532Z,20.20
2017-12-28T06:36:16.196Z,20.10
2017-12-28T06:36:49.866Z,21.15
2017-12-28T06:37:24.293Z,19.70
2017-12-28T06:37:57.959Z,21.75
2017-12-28T06:38:32.380Z,21.42
2017-12-28T06:39:06.812Z,21.12
2017-12-28T06:39:40.478Z,20.27
2017-12-28T06:40:14.914Z,21.20
2017-12-28T06:40:48.969Z,21.70
2017-12-28T06:41:23.389Z,21.27
2017-12-28T06:41:57.822Z,19.45
2017-12-28T06:42:31.477Z,21.02
2017-12-28T06:43:05.905Z,21.52
2017-12-28T06:43:39.674Z,20.83
2017-12-28T06:44:14.105Z,21.50
2017-12-28T06:44:47.873Z,20.60
2017-12-28T06:45:21.538Z,22.62
2017-12-28T06:45:55.557Z,22.40
2017-12-28T06:46:29.993Z,22.55
2017-12-28T06:47:03.653Z,23.50
2017-12-28T06:47:38.072Z,22.70
2017-12-28T06:48:12.509Z,22.35
2017-12-28T06:48:46.170Z,22.23
2017-12-28T06:49:20.594Z,24.50
2017-12-28T06:49:54.258Z,22.37
2017-12-28T06:50:28.687Z,23.92
2017-12-28T06:51:02.756Z,23.95
2017-12-28T06:51:37.190Z,23.02
2017-12-28T06:52:10.857Z,22.13
2017-12-28T06:52:45.310Z,22.02
2017-12-28T06:53:18.986Z,22.05
2017-12-28T06:53:52.670Z,20.92
2017-12-28T06:54:26.397Z,20.80
2017-12-28T06:55:00.083Z,21.45
2017-12-28T06:55:33.749Z,21.92
2017-12-28T06:56:07.441Z,21.15
2017-12-28T06:56:41.115Z,21.23
2017-12-28T06:57:14.780Z,19.83
2017-12-28T06:57:49.205Z,21.27
2017-12-28T06:58:23.638Z,20.48
2017-12-28T06:58:59.103Z,20.92
2017-12-28T06:59:32.906Z,21.17
2017-12-28T07:00:07.781Z,20.37
2017-12-28T07:00:41.454Z,21.10
2017-12-28T07:01:15.634Z,21.62
2017-12-28T07:01:50.063Z,22.70
2017-12-28T07:02:23.725Z,20.55
2017-12-28T07:02:58.157Z,20.95
2017-12-28T07:03:31.820Z,21.60
2017-12-28T07:04:06.244Z,22.05
2017-12-28T07:04:40.673Z,21.73
2017-12-28T07:05:14.342Z,22.15
2017-12-28T07:05:48.009Z,22.50
2017-12-28T07:06:21.723Z,22.05
2017-12-28T07:06:55.498Z,22.08
2017-12-28T07:07:29.941Z,21.90
2017-12-28T07:08:03.613Z,22.15
2017-12-28T07:08:37.270Z,22.08
2017-12-28T07:09:10.933Z,20.92
2017-12-28T07:09:44.609Z,20.83
2017-12-28T07:10:18.290Z,21.77
2017-12-28T07:10:51.951Z,22.37
2017-12-28T07:11:26.402Z,22.62
2017-12-28T07:12:00.084Z,23.15
2017-12-28T07:12:33.751Z,22.42
2017-12-28T07:13:07.414Z,21.90
2017-12-28T07:13:41.078Z,21.60
2017-12-28T07:14:14.744Z,22.35
2017-12-28T07:14:48.406Z,22.70
2017-12-28T07:15:22.073Z,23.17
2017-12-28T07:15:56.502Z,22.83
2017-12-28T07:16:30.192Z,23.65
2017-12-28T07:17:03.874Z,22.60
2017-12-28T07:17:38.318Z,22.17